Terminal Aerodrome Forecast
Issued by NWS

Home | Current Version | Previous Version | Graphics & Text | Print | Product List | Glossary On
Versions: 1 2 3 4 5 6 7 8 9 10 11 12 13 14 15 16 17
538
FTUS43 KICT 181723
TAFCNU
TAF
KCNU 181723Z 1818/1918 19009KT P6SM OVC150
     FM182200 19009KT P6SM VCTS SCT040 BKN150CB
     FM190500 23005KT P6SM BKN200
     FM191000 VRB06KT P6SM SKC=

USA.gov is the U.S. government's official web portal to all federal, state and local government web resources and services.